createdAt,value
2022-08-26T00:00:54.771Z,101560.46
2022-08-26T00:03:24.529Z,101557.05
2022-08-26T00:05:54.252Z,101553.03
2022-08-26T00:08:24.329Z,101556.53
2022-08-26T00:10:53.698Z,101556.41
2022-08-26T00:13:23.291Z,101558.76
2022-08-26T00:15:52.846Z,101549.52
2022-08-26T00:18:22.740Z,101558.59
2022-08-26T00:20:52.769Z,101558.27
2022-08-26T00:23:24.260Z,101559.39
2022-08-26T00:25:54.164Z,101549.95
2022-08-26T00:28:23.794Z,101543.96
2022-08-26T00:30:53.685Z,101551.35
2022-08-26T00:33:24.242Z,101551.91
2022-08-26T00:35:53.701Z,101556.36
2022-08-26T00:38:23.423Z,101560.66
2022-08-26T00:40:55.295Z,101559.86
2022-08-26T00:43:26.570Z,101553.91
2022-08-26T00:45:59.515Z,101557.24
2022-08-26T00:48:32.300Z,101557.98
2022-08-26T00:51:05.540Z,101557.11
2022-08-26T00:53:36.071Z,101556.05
2022-08-26T00:56:17.164Z,101558.47
2022-08-26T00:58:48.135Z,101553.36
2022-08-26T01:01:18.514Z,101553.12
2022-08-26T01:03:49.854Z,101556.09
2022-08-26T01:06:19.400Z,101557.77
2022-08-26T01:08:48.697Z,101556.09
2022-08-26T01:11:18.065Z,101559.91
2022-08-26T01:13:48.185Z,101559.59
2022-08-26T01:16:17.957Z,101556.48
2022-08-26T01:18:49.471Z,101548.22
2022-08-26T01:21:24.575Z,101553.47
2022-08-26T01:23:57.348Z,101548.33
2022-08-26T01:26:29.782Z,101550.00
2022-08-26T01:29:01.157Z,101549.59
2022-08-26T01:31:41.395Z,101549.06
2022-08-26T01:34:16.585Z,101554.80
2022-08-26T01:36:51.049Z,101541.16
2022-08-26T01:39:18.106Z,101543.59
2022-08-26T01:41:48.082Z,101542.58
2022-08-26T01:44:21.253Z,101545.73
2022-08-26T01:46:51.426Z,101547.84
2022-08-26T01:49:22.182Z,101546.22
2022-08-26T01:51:53.685Z,101544.92
2022-08-26T01:54:23.707Z,101546.33
2022-08-26T01:56:55.921Z,101545.20
2022-08-26T01:59:25.015Z,101546.33
2022-08-26T02:01:54.662Z,101549.16
2022-08-26T02:04:29.967Z,101546.67
2022-08-26T02:06:59.652Z,101546.92
2022-08-26T02:09:29.615Z,101549.41
2022-08-26T02:12:02.059Z,101550.77
2022-08-26T02:14:43.565Z,101545.94
2022-08-26T02:17:10.169Z,101557.34
2022-08-26T02:19:42.077Z,101561.94
2022-08-26T02:22:14.025Z,101557.34
2022-08-26T02:24:49.962Z,101566.34
2022-08-26T02:27:25.578Z,101567.67
2022-08-26T02:30:05.572Z,101572.11
2022-08-26T02:32:35.056Z,101568.75
2022-08-26T02:35:05.998Z,101568.83
2022-08-26T02:37:36.738Z,101567.70
2022-08-26T02:40:09.589Z,101563.58
2022-08-26T02:42:39.321Z,101563.86
2022-08-26T02:45:11.007Z,101564.14
2022-08-26T02:47:40.420Z,101572.11
2022-08-26T02:50:10.091Z,101576.27
2022-08-26T02:52:39.309Z,101570.88
2022-08-26T02:55:09.366Z,101568.67
2022-08-26T02:57:38.785Z,101569.30
2022-08-26T03:00:11.072Z,101564.65
2022-08-26T03:02:40.431Z,101562.72
2022-08-26T03:05:10.543Z,101554.14
2022-08-26T03:07:40.371Z,101558.73
2022-08-26T03:10:11.682Z,101553.13
2022-08-26T03:12:41.205Z,101555.08
2022-08-26T03:15:15.616Z,101561.75
2022-08-26T03:17:42.308Z,101552.84
2022-08-26T03:20:13.659Z,101558.70
2022-08-26T03:22:44.694Z,101555.89
2022-08-26T03:25:16.645Z,101559.23
2022-08-26T03:27:46.087Z,101558.95
2022-08-26T03:30:35.162Z,101561.96
2022-08-26T03:33:05.418Z,101557.09
2022-08-26T03:35:35.117Z,101555.48
2022-08-26T03:38:06.891Z,101560.69
2022-08-26T03:40:36.726Z,101553.59
2022-08-26T03:43:09.566Z,101561.77
2022-08-26T03:45:38.898Z,101551.48
2022-08-26T03:48:08.454Z,101558.80
2022-08-26T03:50:37.933Z,101557.52
2022-08-26T03:53:07.444Z,101560.50
2022-08-26T03:55:38.745Z,101561.12
2022-08-26T03:58:08.509Z,101562.79
2022-08-26T04:00:37.864Z,101555.25
2022-08-26T04:03:09.810Z,101557.26
2022-08-26T04:05:38.539Z,101563.43
2022-08-26T04:08:07.845Z,101559.92
2022-08-26T04:10:38.852Z,101562.91
2022-08-26T04:13:08.324Z,101573.56
2022-08-26T04:15:39.425Z,101575.78
2022-08-26T04:18:08.701Z,101581.98
2022-08-26T04:20:38.041Z,101575.23
2022-08-26T04:23:07.508Z,101570.92
2022-08-26T04:25:37.070Z,101577.73
2022-08-26T04:28:08.287Z,101578.84
2022-08-26T04:30:40.892Z,101569.61
2022-08-26T04:33:13.916Z,101571.47
2022-08-26T04:35:44.210Z,101565.72
2022-08-26T04:38:13.664Z,101569.55
2022-08-26T04:40:47.527Z,101565.99
2022-08-26T04:43:16.799Z,101571.64
2022-08-26T04:45:46.074Z,101571.08
2022-08-26T04:48:16.885Z,101567.55
2022-08-26T04:50:49.643Z,101566.16
2022-08-26T04:53:17.256Z,101563.77
2022-08-26T04:55:48.394Z,101573.25
2022-08-26T04:58:18.735Z,101568.88
2022-08-26T05:00:49.526Z,101565.07
2022-08-26T05:03:19.839Z,101577.65
2022-08-26T05:05:50.922Z,101577.70
2022-08-26T05:08:22.397Z,101576.90
2022-08-26T05:10:57.399Z,101579.63
2022-08-26T05:13:28.486Z,101576.90
2022-08-26T05:16:00.578Z,101582.07
2022-08-26T05:18:30.023Z,101577.15
2022-08-26T05:20:59.391Z,101572.81
2022-08-26T05:23:28.881Z,101574.12
2022-08-26T05:25:59.212Z,101575.42
2022-08-26T05:28:30.929Z,101578.38
2022-08-26T05:31:00.271Z,101580.95
2022-08-26T05:33:29.593Z,101579.80
2022-08-26T05:35:59.005Z,101581.95
2022-08-26T05:38:30.270Z,101579.37
2022-08-26T05:40:59.791Z,101585.33
2022-08-26T05:43:29.308Z,101586.14
2022-08-26T05:46:02.845Z,101590.55
2022-08-26T05:48:33.890Z,101590.76
2022-08-26T05:51:06.204Z,101597.48
2022-08-26T05:53:37.363Z,101600.19
2022-08-26T05:56:09.927Z,101601.42
2022-08-26T05:58:41.400Z,101608.21
2022-08-26T06:01:14.536Z,101611.69
2022-08-26T06:03:46.276Z,101618.62
2022-08-26T06:06:27.947Z,101616.85
2022-08-26T06:08:59.506Z,101618.41
2022-08-26T06:11:32.148Z,101618.47
2022-08-26T06:14:06.989Z,101611.30
2022-08-26T06:16:40.931Z,101621.69
2022-08-26T06:19:12.108Z,101621.80
2022-08-26T06:21:43.507Z,101621.34
2022-08-26T06:24:32.264Z,101626.78
2022-08-26T06:27:04.707Z,101625.80
2022-08-26T06:29:36.084Z,101626.14
2022-08-26T06:32:06.776Z,101638.30
2022-08-26T06:34:36.164Z,101640.05
2022-08-26T06:37:06.390Z,101636.13
2022-08-26T06:39:36.148Z,101638.86
2022-08-26T06:42:08.063Z,101637.39
2022-08-26T06:44:37.316Z,101645.48
2022-08-26T06:47:08.386Z,101648.59
2022-08-26T06:49:37.633Z,101651.74
2022-08-26T06:52:07.332Z,101639.11
2022-08-26T06:54:38.862Z,101648.53
2022-08-26T06:57:08.794Z,101652.97
2022-08-26T06:59:38.122Z,101659.52
2022-08-26T07:02:08.127Z,101655.77
2022-08-26T07:04:37.554Z,101664.36
2022-08-26T07:07:06.868Z,101671.24
2022-08-26T07:09:37.970Z,101662.17
2022-08-26T07:12:07.884Z,101661.75
2022-08-26T07:14:37.223Z,101664.92
2022-08-26T07:17:11.064Z,101667.11
2022-08-26T07:19:42.253Z,101662.83
2022-08-26T07:22:11.916Z,101666.17
2022-08-26T07:24:42.497Z,101664.81
2022-08-26T07:27:14.612Z,101668.00
2022-08-26T07:29:45.026Z,101667.16
2022-08-26T07:32:15.748Z,101663.02
2022-08-26T07:34:46.001Z,101668.00
2022-08-26T07:37:15.712Z,101670.55
2022-08-26T07:39:47.562Z,101674.33
2022-08-26T07:42:20.349Z,101674.73
2022-08-26T07:44:50.038Z,101672.15
2022-08-26T07:47:25.126Z,101682.58
2022-08-26T07:49:52.787Z,101691.89
2022-08-26T07:52:25.942Z,101681.46
2022-08-26T07:54:52.266Z,101689.39
2022-08-26T07:57:21.680Z,101695.06
2022-08-26T07:59:54.043Z,101699.87
2022-08-26T08:02:26.038Z,101695.36
2022-08-26T08:04:56.806Z,101695.36
2022-08-26T08:07:38.727Z,101694.92
2022-08-26T08:09:57.930Z,101700.27
2022-08-26T08:12:27.254Z,101697.54
2022-08-26T08:14:56.521Z,101699.64
2022-08-26T08:17:25.798Z,101698.25
2022-08-26T08:19:55.061Z,101698.75
2022-08-26T08:22:24.890Z,101698.66
2022-08-26T08:24:56.764Z,101699.06
2022-08-26T08:27:27.047Z,101698.52
2022-08-26T08:29:57.059Z,101700.13
2022-08-26T08:32:26.429Z,101701.40
2022-08-26T08:34:56.320Z,101701.55
2022-08-26T08:37:25.875Z,101702.13
2022-08-26T08:39:55.356Z,101699.28
2022-08-26T08:42:49.026Z,101703.58
2022-08-26T08:45:41.072Z,101707.97
2022-08-26T08:48:27.875Z,101707.81
2022-08-26T08:51:06.439Z,101705.15
2022-08-26T08:53:38.488Z,101707.50
2022-08-26T08:56:23.316Z,101710.28
2022-08-26T08:59:08.525Z,101711.71
2022-08-26T09:01:56.724Z,101715.19
2022-08-26T09:04:32.057Z,101717.67
2022-08-26T09:07:04.558Z,101720.05
2022-08-26T09:09:57.363Z,101716.87
2022-08-26T09:12:32.954Z,101716.30
2022-08-26T09:15:06.091Z,101713.41
2022-08-26T09:17:55.296Z,101713.30
2022-08-26T09:20:40.582Z,101707.64
2022-08-26T09:23:11.693Z,101708.36
2022-08-26T09:28:25.104Z,101708.86
2022-08-26T09:31:16.373Z,101714.08
2022-08-26T09:33:45.688Z,101712.94
2022-08-26T09:36:18.978Z,101725.09
2022-08-26T09:38:48.357Z,101721.59
2022-08-26T09:41:30.728Z,101728.31
2022-08-26T09:44:16.236Z,101724.57
2022-08-26T09:46:57.714Z,101728.84
2022-08-26T09:49:35.780Z,101729.20
2022-08-26T09:52:23.744Z,101729.20
2022-08-26T09:55:03.482Z,101726.29
2022-08-26T09:57:35.372Z,101733.85
2022-08-26T10:00:08.000Z,101731.35
2022-08-26T10:02:41.588Z,101726.16
2022-08-26T10:05:16.660Z,101728.23
2022-08-26T10:07:49.421Z,101728.43
2022-08-26T10:10:27.889Z,101731.39
2022-08-26T10:13:16.922Z,101729.28
2022-08-26T10:15:51.158Z,101729.33
2022-08-26T10:18:29.695Z,101729.03
2022-08-26T10:21:10.971Z,101726.88
2022-08-26T10:23:43.180Z,101719.93
2022-08-26T10:26:24.109Z,101734.25
2022-08-26T10:29:14.589Z,101733.00
2022-08-26T10:31:51.402Z,101734.28
2022-08-26T10:34:21.383Z,101730.11
2022-08-26T10:37:13.810Z,101729.84
2022-08-26T10:39:38.458Z,101735.45
2022-08-26T10:42:16.424Z,101730.66
2022-08-26T10:44:47.566Z,101731.23
2022-08-26T10:47:23.413Z,101735.66
2022-08-26T10:49:58.700Z,101734.85
2022-08-26T10:52:31.408Z,101731.09
2022-08-26T10:55:10.365Z,101737.67
2022-08-26T10:57:45.907Z,101733.83
2022-08-26T11:00:45.329Z,101742.00
2022-08-26T11:03:48.378Z,101732.52
2022-08-26T11:06:31.229Z,101733.31
2022-08-26T11:09:03.093Z,101739.08
2022-08-26T11:11:47.273Z,101735.94
2022-08-26T11:14:29.749Z,101735.64
2022-08-26T11:16:57.801Z,101731.97
2022-08-26T11:19:59.287Z,101728.27
2022-08-26T11:22:27.492Z,101728.31
2022-08-26T11:25:00.213Z,101726.65
2022-08-26T11:27:42.170Z,101728.67
2022-08-26T11:30:24.123Z,101725.11
2022-08-26T11:32:56.183Z,101717.48
2022-08-26T11:35:38.228Z,101718.20
2022-08-26T11:38:17.965Z,101712.56
2022-08-26T11:40:51.603Z,101717.90
2022-08-26T11:43:23.426Z,101716.21
2022-08-26T11:46:07.347Z,101711.49
2022-08-26T11:48:41.004Z,101714.87
2022-08-26T11:51:13.417Z,101715.80
2022-08-26T11:53:42.925Z,101721.71
2022-08-26T11:56:15.839Z,101716.25
2022-08-26T11:58:46.233Z,101718.77
2022-08-26T12:01:24.347Z,101721.73
2022-08-26T12:03:54.846Z,101718.58
2022-08-26T12:06:29.247Z,101726.09
2022-08-26T12:09:01.060Z,101731.48
2022-08-26T12:11:32.961Z,101730.16
2022-08-26T12:14:05.283Z,101729.17
2022-08-26T12:16:38.850Z,101723.45
2022-08-26T12:19:27.424Z,101729.05
2022-08-26T12:21:59.931Z,101728.03
2022-08-26T12:24:28.768Z,101724.18
2022-08-26T12:27:23.761Z,101727.86
2022-08-26T12:30:04.960Z,101727.43
2022-08-26T12:32:38.704Z,101725.82
2022-08-26T12:35:12.044Z,101722.44
2022-08-26T12:37:43.903Z,101729.11
2022-08-26T12:40:39.006Z,101735.27
2022-08-26T12:43:10.701Z,101734.84
2022-08-26T12:45:43.561Z,101731.51
2022-08-26T12:48:16.295Z,101732.23
2022-08-26T12:50:51.398Z,101745.30
2022-08-26T12:53:32.350Z,101740.88
2022-08-26T12:56:07.449Z,101741.05
2022-08-26T12:58:40.365Z,101735.58
2022-08-26T13:01:12.917Z,101736.07
2022-08-26T13:03:44.901Z,101732.50
2022-08-26T13:06:32.615Z,101730.02
2022-08-26T13:09:06.188Z,101736.61
2022-08-26T13:11:45.056Z,101735.73
2022-08-26T13:14:21.180Z,101732.07
2022-08-26T13:16:48.496Z,101739.16
2022-08-26T13:19:20.715Z,101737.59
2022-08-26T13:21:54.075Z,101731.15
2022-08-26T13:24:32.342Z,101730.30
2022-08-26T13:27:02.699Z,101726.16
2022-08-26T13:29:32.122Z,101726.02
2022-08-26T13:32:01.675Z,101724.66
2022-08-26T13:34:32.361Z,101726.70
2022-08-26T13:37:02.310Z,101728.77
2022-08-26T13:39:31.771Z,101723.65
2022-08-26T13:42:01.033Z,101718.68
2022-08-26T13:44:32.877Z,101723.34
2022-08-26T13:47:01.299Z,101721.30
2022-08-26T13:49:30.683Z,101735.04
2022-08-26T13:51:59.997Z,101724.55
2022-08-26T13:54:29.416Z,101731.77
2022-08-26T13:56:59.515Z,101726.25
2022-08-26T13:59:28.988Z,101723.61
2022-08-26T14:01:58.828Z,101730.28
2022-08-26T14:04:28.665Z,101730.88
2022-08-26T14:06:58.135Z,101730.56
2022-08-26T14:09:27.419Z,101727.78
2022-08-26T14:11:58.931Z,101723.44
2022-08-26T14:14:28.008Z,101726.14
2022-08-26T14:16:59.581Z,101722.19
2022-08-26T14:19:32.867Z,101723.72
2022-08-26T14:22:03.078Z,101730.24
2022-08-26T14:24:32.462Z,101716.58
2022-08-26T14:27:01.752Z,101715.84
2022-08-26T14:29:31.081Z,101717.24
2022-08-26T14:32:02.618Z,101719.17
2022-08-26T14:34:32.084Z,101720.75
2022-08-26T14:37:07.213Z,101720.30
2022-08-26T14:39:32.732Z,101718.28
2022-08-26T14:42:02.260Z,101715.79
2022-08-26T14:44:32.975Z,101705.98
2022-08-26T14:47:03.694Z,101700.63
2022-08-26T14:49:33.204Z,101705.30
2022-08-26T14:54:55.496Z,101699.41
2022-08-26T14:57:24.776Z,101690.59
2022-08-26T14:59:54.247Z,101694.00
2022-08-26T15:02:32.394Z,101694.58
2022-08-26T15:04:55.995Z,101695.58
2022-08-26T15:07:25.231Z,101687.66
2022-08-26T15:09:54.753Z,101695.45
2022-08-26T15:12:24.205Z,101693.78
2022-08-26T15:14:54.134Z,101692.45
2022-08-26T15:17:23.500Z,101687.77
2022-08-26T15:19:53.115Z,101684.55
2022-08-26T15:22:23.988Z,101685.13
2022-08-26T15:24:54.667Z,101686.00
2022-08-26T15:27:23.845Z,101688.27
2022-08-26T15:29:53.261Z,101684.28
2022-08-26T15:32:22.636Z,101679.77
2022-08-26T15:34:53.055Z,101679.59
2022-08-26T15:37:22.309Z,101679.59
2022-08-26T15:39:52.513Z,101678.70
2022-08-26T15:42:22.107Z,101679.88
2022-08-26T15:44:52.409Z,101675.41
2022-08-26T15:47:22.131Z,101683.00
2022-08-26T15:49:51.709Z,101684.72
2022-08-26T15:52:21.188Z,101690.73
2022-08-26T15:54:50.768Z,101687.73
2022-08-26T15:57:20.166Z,101682.13
2022-08-26T15:59:49.505Z,101683.44
2022-08-26T16:02:19.769Z,101682.02
2022-08-26T16:04:49.098Z,101682.26
2022-08-26T16:07:18.408Z,101682.62
2022-08-26T16:09:54.029Z,101681.58
2022-08-26T16:12:23.492Z,101674.17
2022-08-26T16:14:54.056Z,101671.07
2022-08-26T16:17:25.085Z,101672.31
2022-08-26T16:19:54.544Z,101665.06
2022-08-26T16:22:23.843Z,101673.57
2022-08-26T16:24:59.443Z,101634.20
2022-08-26T16:27:28.752Z,101671.26
2022-08-26T16:29:58.187Z,101666.30
2022-08-26T16:32:31.156Z,101668.94
2022-08-26T16:34:58.749Z,101658.69
2022-08-26T16:37:28.152Z,101661.93
2022-08-26T16:39:57.695Z,101659.56
2022-08-26T16:42:27.105Z,101660.50
2022-08-26T16:44:56.468Z,101658.02
2022-08-26T16:47:26.335Z,101661.73
2022-08-26T16:49:55.832Z,101660.70
2022-08-26T16:52:25.758Z,101673.94
2022-08-26T16:54:56.867Z,101673.00
2022-08-26T16:57:26.137Z,101678.16
2022-08-26T16:59:55.932Z,101671.54
2022-08-26T17:02:25.295Z,101670.16
2022-08-26T17:04:54.721Z,101668.54
2022-08-26T17:07:24.210Z,101667.98
2022-08-26T17:09:53.532Z,101673.48
2022-08-26T17:12:23.013Z,101675.98
2022-08-26T17:14:52.415Z,101671.98
2022-08-26T17:17:22.148Z,101674.23
2022-08-26T17:19:51.451Z,101667.26
2022-08-26T17:22:21.201Z,101674.68
2022-08-26T17:24:50.567Z,101675.41
2022-08-26T17:27:19.988Z,101670.29
2022-08-26T17:29:49.224Z,101680.16
2022-08-26T17:32:18.548Z,101677.37
2022-08-26T17:34:47.799Z,101681.09
2022-08-26T17:37:17.462Z,101684.75
2022-08-26T17:39:46.746Z,101682.48
2022-08-26T17:42:16.079Z,101684.06
2022-08-26T17:44:48.361Z,101687.50
2022-08-26T17:47:18.282Z,101687.87
2022-08-26T17:49:47.592Z,101692.41
2022-08-26T17:52:17.073Z,101694.44
2022-08-26T17:54:46.377Z,101698.53
2022-08-26T17:57:15.777Z,101700.95
2022-08-26T17:59:45.380Z,101699.59
2022-08-26T18:02:16.036Z,101697.89
2022-08-26T18:04:45.584Z,101697.64
2022-08-26T18:07:15.277Z,101704.60
2022-08-26T18:09:44.883Z,101701.73
2022-08-26T18:12:14.615Z,101697.58
2022-08-26T18:14:43.907Z,101702.06
2022-08-26T18:17:13.424Z,101706.97
2022-08-26T18:19:44.450Z,101705.16
2022-08-26T18:22:15.768Z,101706.54
2022-08-26T18:24:52.798Z,101702.95
2022-08-26T18:27:16.391Z,101701.39
2022-08-26T18:29:47.371Z,101704.45
2022-08-26T18:32:17.225Z,101705.64
2022-08-26T18:34:46.470Z,101708.19
2022-08-26T18:37:16.109Z,101710.05
2022-08-26T18:39:45.387Z,101707.41
2022-08-26T18:42:14.659Z,101715.66
2022-08-26T18:44:43.900Z,101723.33
2022-08-26T18:47:13.445Z,101722.59
2022-08-26T18:49:42.822Z,101727.19
2022-08-26T18:52:12.383Z,101721.30
2022-08-26T18:54:41.719Z,101726.98
2022-08-26T18:57:12.296Z,101716.10
2022-08-26T18:59:41.669Z,101722.44
2022-08-26T19:02:11.247Z,101723.03
2022-08-26T19:04:40.699Z,101717.16
2022-08-26T19:07:10.049Z,101720.31
2022-08-26T19:09:40.927Z,101722.23
2022-08-26T19:12:11.693Z,101729.60
2022-08-26T19:14:41.127Z,101727.53
2022-08-26T19:17:11.841Z,101730.34
2022-08-26T19:19:42.951Z,101733.62
2022-08-26T19:22:14.169Z,101734.23
2022-08-26T19:24:43.605Z,101739.13
2022-08-26T19:27:15.047Z,101746.05
2022-08-26T19:29:44.535Z,101743.62
2022-08-26T19:32:13.908Z,101748.59
2022-08-26T19:34:43.492Z,101754.63
2022-08-26T19:37:12.789Z,101751.41
2022-08-26T19:39:42.253Z,101752.56
2022-08-26T19:42:11.692Z,101755.66
2022-08-26T19:44:59.306Z,101752.08
2022-08-26T19:47:28.686Z,101754.34
2022-08-26T19:49:58.655Z,101759.02
2022-08-26T19:52:29.878Z,101758.69
2022-08-26T19:54:59.781Z,101759.79
2022-08-26T19:57:29.504Z,101756.90
2022-08-26T19:59:59.820Z,101764.01
2022-08-26T20:02:30.541Z,101765.97
2022-08-26T20:05:00.112Z,101769.30
2022-08-26T20:07:29.498Z,101770.66
2022-08-26T20:09:59.643Z,101767.73
2022-08-26T20:12:29.396Z,101771.59
2022-08-26T20:14:58.968Z,101776.27
2022-08-26T20:17:28.458Z,101778.69
2022-08-26T20:20:33.146Z,101782.78
2022-08-26T20:22:46.573Z,101776.27
2022-08-26T20:25:17.600Z,101777.92
2022-08-26T20:27:46.882Z,101773.39
2022-08-26T20:30:16.447Z,101778.65
2022-08-26T20:32:45.893Z,101777.88
2022-08-26T20:35:15.738Z,101774.08
2022-08-26T20:37:45.305Z,101769.74
2022-08-26T20:40:15.949Z,101769.52
2022-08-26T20:42:45.320Z,101766.02
2022-08-26T20:45:14.748Z,101774.77
2022-08-26T20:47:44.152Z,101771.02
2022-08-26T20:50:14.298Z,101770.75
2022-08-26T20:52:43.550Z,101772.94
2022-08-26T20:55:12.975Z,101770.51
2022-08-26T20:57:43.279Z,101771.86
2022-08-26T21:00:15.079Z,101778.12
2022-08-26T21:02:46.312Z,101779.53
2022-08-26T21:05:15.971Z,101771.39
2022-08-26T21:07:45.508Z,101783.89
2022-08-26T21:10:15.238Z,101782.30
2022-08-26T21:12:45.348Z,101787.73
2022-08-26T21:15:16.526Z,101779.34
2022-08-26T21:17:46.100Z,101783.96
2022-08-26T21:20:15.501Z,101786.96
2022-08-26T21:22:47.388Z,101783.73
2022-08-26T21:25:17.195Z,101781.29
2022-08-26T21:27:46.793Z,101787.81
2022-08-26T21:30:17.303Z,101782.91
2022-08-26T21:32:46.587Z,101780.19
2022-08-26T21:35:16.054Z,101776.96
2022-08-26T21:37:45.310Z,101782.37
2022-08-26T21:40:14.785Z,101782.38
2022-08-26T21:42:44.139Z,101777.52
2022-08-26T21:45:13.587Z,101781.58
2022-08-26T21:47:43.032Z,101783.77
2022-08-26T21:50:13.700Z,101782.41
2022-08-26T21:52:43.803Z,101781.06
2022-08-26T21:55:13.321Z,101771.83
2022-08-26T21:57:43.181Z,101775.09
2022-08-26T22:00:15.228Z,101779.70
2022-08-26T22:02:44.613Z,101778.91
2022-08-26T22:05:14.037Z,101779.45
2022-08-26T22:07:43.328Z,101774.03
2022-08-26T22:10:12.891Z,101777.82
2022-08-26T22:12:42.387Z,101782.97
2022-08-26T22:15:12.068Z,101781.89
2022-08-26T22:17:41.460Z,101781.06
2022-08-26T22:20:16.634Z,101784.34
2022-08-26T22:22:42.748Z,101781.89
2022-08-26T22:25:12.240Z,101783.76
2022-08-26T22:27:42.860Z,101787.02
2022-08-26T22:30:12.655Z,101783.48
2022-08-26T22:32:43.830Z,101782.12
2022-08-26T22:35:28.905Z,101787.27
2022-08-26T22:37:47.365Z,101788.64
2022-08-26T22:40:17.225Z,101785.36
2022-08-26T22:42:56.902Z,101782.39
2022-08-26T22:45:18.211Z,101788.90
2022-08-26T22:47:47.581Z,101784.81
2022-08-26T22:50:17.001Z,101782.37
2022-08-26T22:52:46.348Z,101786.45
2022-08-26T22:55:16.098Z,101789.98
2022-08-26T22:57:45.651Z,101782.64
2022-08-26T23:00:15.430Z,101779.93
2022-08-26T23:02:44.722Z,101779.68
2022-08-26T23:05:14.161Z,101778.05
2022-08-26T23:07:43.670Z,101769.92
2022-08-26T23:10:13.293Z,101778.33
2022-08-26T23:12:42.746Z,101771.55
2022-08-26T23:15:13.336Z,101764.20
2022-08-26T23:17:42.873Z,101762.05
2022-08-26T23:20:13.434Z,101763.39
2022-08-26T23:22:43.060Z,101762.31
2022-08-26T23:25:12.702Z,101759.87
2022-08-26T23:27:43.863Z,101765.56
2022-08-26T23:30:16.738Z,101764.20
2022-08-26T23:32:46.681Z,101765.02
2022-08-26T23:35:18.836Z,101769.09
2022-08-26T23:37:51.650Z,101769.63
2022-08-26T23:40:30.175Z,101760.15
2022-08-26T23:43:02.152Z,101763.38
2022-08-26T23:45:32.371Z,101761.52
2022-08-26T23:48:01.809Z,101759.59
2022-08-26T23:50:50.041Z,101757.98
2022-08-26T23:53:22.070Z,101752.27
2022-08-26T23:55:52.852Z,101757.16
2022-08-26T23:58:22.845Z,101756.62
